Terminal Aerodrome Forecast
Issued by NWS

Current Version | Previous Version | Text Only | Print | Product List | Glossary On
Versions: 1 2 3 4 5 6 7 8 9 10 11 12 13 14 15 16 17 18 19
362
FTUS43 KABR 291736 AAA
TAFPIR
TAF AMD
KPIR 291736Z 2918/3018 04014KT P6SM FEW250
     FM300300 05009KT P6SM FEW250
     FM301500 10009KT P6SM FEW250=

USA.gov is the U.S. government's official web portal to all federal, state and local government web resources and services.